createdAt,value
2022-10-09T00:02:10.855Z,3.90
2022-10-09T00:05:25.498Z,4.10
2022-10-09T00:09:13.067Z,4.50
2022-10-09T00:12:43.930Z,4.20
2022-10-09T00:16:11.381Z,4.20
2022-10-09T00:19:31.682Z,3.90
2022-10-09T00:22:39.917Z,3.20
2022-10-09T00:25:57.066Z,3.50
2022-10-09T00:29:43.332Z,3.90
2022-10-09T00:33:21.676Z,3.50
2022-10-09T00:36:54.199Z,3.40
2022-10-09T00:40:34.629Z,3.10
2022-10-09T00:44:20.585Z,3.40
2022-10-09T00:48:19.977Z,2.90
2022-10-09T00:51:35.060Z,3.40
2022-10-09T00:55:08.314Z,3.80
2022-10-09T00:58:55.695Z,3.40
2022-10-09T01:02:36.916Z,4.00
2022-10-09T01:06:27.228Z,3.50
2022-10-09T01:10:04.164Z,3.40
2022-10-09T01:13:41.539Z,3.90
2022-10-09T01:17:31.723Z,3.60
2022-10-09T01:21:25.174Z,3.60
2022-10-09T01:24:55.356Z,3.50
2022-10-09T01:28:42.336Z,3.80
2022-10-09T01:32:22.386Z,3.70
2022-10-09T01:35:51.419Z,3.70
2022-10-09T01:39:25.546Z,3.50
2022-10-09T01:42:47.736Z,3.80
2022-10-09T01:46:56.795Z,3.50
2022-10-09T01:51:05.638Z,3.30
2022-10-09T01:54:26.294Z,4.10
2022-10-09T01:57:59.432Z,3.50
2022-10-09T02:01:46.987Z,4.10
2022-10-09T02:05:32.793Z,3.60
2022-10-09T02:09:20.284Z,3.90
2022-10-09T02:13:07.925Z,3.80
2022-10-09T02:16:57.236Z,4.10
2022-10-09T02:20:20.518Z,3.40
2022-10-09T02:24:08.179Z,4.10
2022-10-09T02:27:54.481Z,4.20
2022-10-09T02:32:00.026Z,4.00
2022-10-09T02:35:32.470Z,4.70
2022-10-09T02:39:20.182Z,4.30
2022-10-09T02:43:00.165Z,4.10
2022-10-09T02:46:47.806Z,4.20
2022-10-09T02:50:20.927Z,4.50
2022-10-09T02:53:55.444Z,4.60
2022-10-09T02:57:05.196Z,3.70
2022-10-09T03:00:52.657Z,5.30
2022-10-09T03:04:08.141Z,5.70
2022-10-09T03:07:55.746Z,4.60
2022-10-09T03:11:23.622Z,4.90
2022-10-09T03:14:45.285Z,5.20
2022-10-09T03:18:32.744Z,4.30
2022-10-09T03:22:02.072Z,4.60
2022-10-09T03:25:49.607Z,4.80
2022-10-09T03:29:35.326Z,4.40
2022-10-09T03:33:22.775Z,4.00
2022-10-09T03:37:10.900Z,4.50
2022-10-09T03:40:50.199Z,3.80
2022-10-09T03:44:26.526Z,3.90
2022-10-09T03:48:04.760Z,4.70
2022-10-09T03:51:35.294Z,4.30
2022-10-09T03:55:22.778Z,4.20
2022-10-09T03:58:50.626Z,4.20
2022-10-09T04:02:03.629Z,4.30
2022-10-09T04:05:30.928Z,4.40
2022-10-09T04:09:18.026Z,5.10
2022-10-09T04:13:05.559Z,4.70
2022-10-09T04:16:52.734Z,4.10
2022-10-09T04:20:22.699Z,4.80
2022-10-09T04:24:09.871Z,4.90
2022-10-09T04:27:57.267Z,4.20
2022-10-09T04:31:44.999Z,4.20
2022-10-09T04:35:23.073Z,4.70
2022-10-09T04:38:42.220Z,4.00
2022-10-09T04:42:12.145Z,4.30
2022-10-09T04:45:59.597Z,5.00
2022-10-09T04:49:41.069Z,5.00
2022-10-09T04:53:12.052Z,4.50
2022-10-09T04:56:59.948Z,4.60
2022-10-09T05:00:30.589Z,4.40
2022-10-09T05:04:18.021Z,5.00
2022-10-09T05:07:53.223Z,4.50
2022-10-09T05:11:13.926Z,4.20
2022-10-09T05:14:52.724Z,4.50
2022-10-09T05:18:40.282Z,4.60
2022-10-09T05:22:03.510Z,4.50
2022-10-09T05:25:31.300Z,3.80
2022-10-09T05:29:17.287Z,3.90
2022-10-09T05:33:04.802Z,4.40
2022-10-09T05:36:52.186Z,4.50
2022-10-09T05:40:32.514Z,4.50
2022-10-09T05:43:58.239Z,5.10
2022-10-09T05:47:18.247Z,4.00
2022-10-09T05:50:10.412Z,4.60
2022-10-09T05:53:36.961Z,4.60
2022-10-09T05:56:54.320Z,5.00
2022-10-09T06:00:42.865Z,4.10
2022-10-09T06:04:03.431Z,4.80
2022-10-09T06:06:57.996Z,4.90
2022-10-09T06:09:47.702Z,4.70
2022-10-09T06:12:57.115Z,4.80
2022-10-09T06:16:16.991Z,4.60
2022-10-09T06:19:45.862Z,5.00
2022-10-09T06:23:08.799Z,4.50
2022-10-09T06:26:57.313Z,4.60
2022-10-09T06:30:41.902Z,4.90
2022-10-09T06:34:21.425Z,5.10
2022-10-09T06:38:04.722Z,4.40
2022-10-09T06:41:32.228Z,5.50
2022-10-09T06:44:59.885Z,5.70
2022-10-09T06:48:38.782Z,5.10
2022-10-09T06:52:17.158Z,4.70
2022-10-09T06:56:05.743Z,4.90
2022-10-09T06:59:37.439Z,6.60
2022-10-09T07:03:00.616Z,4.60
2022-10-09T07:06:51.105Z,4.70
2022-10-09T07:10:31.532Z,6.30
2022-10-09T07:14:19.531Z,5.50
2022-10-09T07:18:07.772Z,6.10
2022-10-09T07:21:55.572Z,5.30
2022-10-09T07:25:43.604Z,5.00
2022-10-09T07:29:32.148Z,5.80
2022-10-09T07:33:00.591Z,5.00
2022-10-09T07:36:54.572Z,4.90
2022-10-09T07:40:42.390Z,4.60
2022-10-09T07:44:20.290Z,4.40
2022-10-09T07:48:08.352Z,4.10
2022-10-09T07:52:01.937Z,4.30
2022-10-09T07:55:49.761Z,4.90
2022-10-09T07:59:37.688Z,4.70
2022-10-09T08:03:25.475Z,4.70
2022-10-09T08:06:59.026Z,4.90
2022-10-09T08:10:49.062Z,4.80
2022-10-09T08:14:39.747Z,5.20
2022-10-09T08:18:28.125Z,4.20
2022-10-09T08:22:16.766Z,5.30
2022-10-09T08:26:08.910Z,6.70
2022-10-09T08:30:00.400Z,5.40
2022-10-09T08:33:49.080Z,5.50
2022-10-09T08:37:21.945Z,4.80
2022-10-09T08:41:12.756Z,4.90
2022-10-09T08:45:18.676Z,5.50
2022-10-09T08:49:06.963Z,5.30
2022-10-09T08:52:56.656Z,4.70
2022-10-09T08:56:48.845Z,4.20
2022-10-09T09:00:37.352Z,5.10
2022-10-09T09:04:36.961Z,5.10
2022-10-09T09:08:28.317Z,4.00
2022-10-09T09:12:29.451Z,4.70
2022-10-09T09:16:29.319Z,4.50
2022-10-09T09:20:33.836Z,4.70
2022-10-09T09:24:27.120Z,4.40
2022-10-09T09:28:12.516Z,4.70
2022-10-09T09:32:04.784Z,3.70
2022-10-09T09:35:53.238Z,5.40
2022-10-09T09:43:53.702Z,2.80
2022-10-09T09:47:42.165Z,3.40
2022-10-09T09:51:30.968Z,2.80
2022-10-09T09:55:22.003Z,2.80
2022-10-09T09:59:18.971Z,2.70
2022-10-09T10:03:08.546Z,2.80
2022-10-09T10:07:14.232Z,2.60
2022-10-09T10:11:08.428Z,3.00
2022-10-09T10:15:07.863Z,2.30
2022-10-09T10:18:55.922Z,2.50
2022-10-09T10:22:49.659Z,1.70
2022-10-09T10:26:37.741Z,2.10
2022-10-09T10:30:26.258Z,2.20
2022-10-09T10:34:13.968Z,1.60
2022-10-09T10:38:08.542Z,1.20
2022-10-09T10:41:59.815Z,2.20
2022-10-09T10:45:53.421Z,1.30
2022-10-09T10:49:41.353Z,1.20
2022-10-09T10:53:44.915Z,1.40
2022-10-09T10:57:38.423Z,1.60
2022-10-09T11:01:26.354Z,1.40
2022-10-09T11:05:21.224Z,1.30
2022-10-09T11:09:22.097Z,1.80
2022-10-09T11:13:13.812Z,1.70
2022-10-09T11:17:20.143Z,1.10
2022-10-09T11:21:31.319Z,1.40
2022-10-09T11:25:19.414Z,1.40
2022-10-09T11:29:07.170Z,1.50
2022-10-09T11:33:13.242Z,1.70
2022-10-09T11:37:13.924Z,1.20
2022-10-09T11:41:07.329Z,1.30
2022-10-09T11:45:05.836Z,1.30
2022-10-09T11:48:54.861Z,1.30
2022-10-09T11:52:59.240Z,1.50
2022-10-09T11:56:46.988Z,1.50
2022-10-09T12:00:42.785Z,1.00
2022-10-09T12:04:55.619Z,1.80
2022-10-09T12:08:58.860Z,1.50
2022-10-09T12:12:58.220Z,1.60
2022-10-09T12:16:49.202Z,1.20
2022-10-09T12:20:46.289Z,1.70
2022-10-09T12:24:38.193Z,1.50
2022-10-09T12:28:27.052Z,1.30
2022-10-09T12:32:18.390Z,1.30
2022-10-09T12:36:11.582Z,1.40
2022-10-09T12:40:04.853Z,1.60
2022-10-09T12:43:53.721Z,1.40
2022-10-09T12:47:42.615Z,1.10
2022-10-09T12:51:38.399Z,1.10
2022-10-09T12:55:26.927Z,1.00
2022-10-09T12:59:16.509Z,1.20
2022-10-09T13:03:10.662Z,1.00
2022-10-09T13:07:00.099Z,1.30
2022-10-09T13:10:56.933Z,1.20
2022-10-09T13:14:46.655Z,1.30
2022-10-09T13:18:38.206Z,0.80
2022-10-09T13:22:31.104Z,0.80
2022-10-09T13:26:26.244Z,1.30
2022-10-09T13:30:14.921Z,1.20
2022-10-09T13:34:02.669Z,1.10
2022-10-09T13:37:53.703Z,1.00
2022-10-09T13:41:41.917Z,1.00
2022-10-09T13:45:30.029Z,1.40
2022-10-09T13:49:17.469Z,1.40
2022-10-09T13:53:08.406Z,0.80
2022-10-09T13:56:57.151Z,1.30
2022-10-09T14:00:47.329Z,0.70
2022-10-09T14:04:39.037Z,1.10
2022-10-09T14:08:26.723Z,0.60
2022-10-09T14:12:15.422Z,0.90
2022-10-09T14:16:03.935Z,0.70
2022-10-09T14:19:58.341Z,0.40
2022-10-09T14:23:45.966Z,1.00
2022-10-09T14:31:17.729Z,1.00
2022-10-09T14:51:24.912Z,1.00
2022-10-09T14:55:08.700Z,0.90
2022-10-09T14:58:41.438Z,0.90
2022-10-09T15:02:14.038Z,0.70
2022-10-09T15:06:12.749Z,1.30
2022-10-09T15:10:05.805Z,1.10
2022-10-09T15:14:03.159Z,1.10
2022-10-09T15:17:49.278Z,1.50
2022-10-09T15:21:42.293Z,1.70
2022-10-09T15:25:35.055Z,1.20
2022-10-09T15:29:11.920Z,0.90
2022-10-09T15:33:02.483Z,1.20
2022-10-09T15:36:45.079Z,1.00
2022-10-09T15:40:29.296Z,1.20
2022-10-09T15:44:15.347Z,0.70
2022-10-09T15:48:07.566Z,1.10
2022-10-09T15:51:57.719Z,1.20
2022-10-09T15:55:48.017Z,5.20
2022-10-09T15:59:38.389Z,3.50
2022-10-09T16:02:52.632Z,7.70
2022-10-09T16:06:43.240Z,5.30
2022-10-09T16:10:03.761Z,3.50
2022-10-09T16:13:19.548Z,4.20
2022-10-09T16:17:11.458Z,2.00
2022-10-09T16:21:05.434Z,2.00
2022-10-09T16:25:01.466Z,2.20
2022-10-09T16:28:58.427Z,2.30
2022-10-09T16:32:48.749Z,4.50
2022-10-09T16:36:43.232Z,4.20
2022-10-09T16:40:32.613Z,5.30
2022-10-09T16:44:35.409Z,21.60
2022-10-09T16:48:04.673Z,17.90
2022-10-09T16:51:14.840Z,25.30
2022-10-09T16:54:08.149Z,37.90
2022-10-09T16:57:39.936Z,39.90
2022-10-09T17:01:31.357Z,55.30
2022-10-09T17:04:49.994Z,47.80
2022-10-09T17:08:01.422Z,52.30
2022-10-09T17:11:17.515Z,38.10
2022-10-09T17:14:52.277Z,38.60
2022-10-09T17:18:13.932Z,35.60
2022-10-09T17:21:15.643Z,40.20
2022-10-09T17:24:19.261Z,40.50
2022-10-09T17:28:05.624Z,44.20
2022-10-09T17:31:30.045Z,43.20
2022-10-09T17:34:49.258Z,43.80
2022-10-09T17:38:04.614Z,46.10
2022-10-09T17:41:01.009Z,43.00
2022-10-09T17:44:19.601Z,64.30
2022-10-09T17:47:42.458Z,56.00
2022-10-09T17:51:17.573Z,44.30
2022-10-09T17:54:38.440Z,44.30
2022-10-09T17:58:02.144Z,44.80
2022-10-09T18:01:52.116Z,40.10
2022-10-09T18:05:08.721Z,31.30
2022-10-09T18:07:53.830Z,36.90
2022-10-09T18:11:26.529Z,31.80
2022-10-09T18:14:48.316Z,31.40
2022-10-09T18:18:23.998Z,26.30
2022-10-09T18:21:47.124Z,26.50
2022-10-09T18:24:30.233Z,23.60
2022-10-09T18:27:16.032Z,26.50
2022-10-09T18:30:19.868Z,35.30
2022-10-09T18:32:56.256Z,34.80
2022-10-09T18:35:45.502Z,38.60
2022-10-09T18:39:07.346Z,39.90
2022-10-09T18:42:06.612Z,50.50
2022-10-09T18:45:26.183Z,55.20
2022-10-09T18:48:30.575Z,63.20
2022-10-09T18:51:14.998Z,61.10
2022-10-09T18:54:36.071Z,57.20
2022-10-09T18:57:51.912Z,49.30
2022-10-09T19:00:28.248Z,57.30
2022-10-09T19:03:20.169Z,53.50
2022-10-09T19:06:49.169Z,54.10
2022-10-09T19:09:42.038Z,68.20
2022-10-09T19:12:24.120Z,71.50
2022-10-09T19:15:26.496Z,65.90
2022-10-09T19:18:35.208Z,73.40
2022-10-09T19:21:21.490Z,75.00
2022-10-09T19:24:16.049Z,77.50
2022-10-09T19:26:56.153Z,75.70
2022-10-09T19:29:41.105Z,74.20
2022-10-09T19:32:19.185Z,77.70
2022-10-09T19:35:00.008Z,72.60
2022-10-09T19:37:31.864Z,71.70
2022-10-09T19:40:05.145Z,69.80
2022-10-09T19:42:52.253Z,62.80
2022-10-09T19:45:29.126Z,62.40
2022-10-09T19:48:09.975Z,61.60
2022-10-09T19:50:49.303Z,59.80
2022-10-09T19:53:42.364Z,54.30
2022-10-09T19:56:44.095Z,51.20
2022-10-09T19:59:48.887Z,44.60
2022-10-09T20:02:40.749Z,43.40
2022-10-09T20:05:30.672Z,44.60
2022-10-09T20:08:16.109Z,46.20
2022-10-09T20:11:20.311Z,44.80
2022-10-09T20:14:17.510Z,42.90
2022-10-09T20:17:40.367Z,41.90
2022-10-09T20:20:26.450Z,41.20
2022-10-09T20:23:05.741Z,40.10
2022-10-09T20:25:34.572Z,41.50
2022-10-09T20:28:48.294Z,41.00
2022-10-09T20:32:12.205Z,37.50
2022-10-09T20:34:50.921Z,37.30
2022-10-09T20:37:49.735Z,41.20
2022-10-09T20:40:27.822Z,42.40
2022-10-09T20:43:09.402Z,43.20
2022-10-09T20:45:44.741Z,42.10
2022-10-09T20:48:35.923Z,42.40
2022-10-09T20:51:24.881Z,42.60
2022-10-09T20:54:54.850Z,46.00
2022-10-09T20:57:37.268Z,43.00
2022-10-09T21:00:08.882Z,35.30
2022-10-09T21:03:18.011Z,32.20
2022-10-09T21:06:13.848Z,33.50
2022-10-09T21:08:47.517Z,31.70
2022-10-09T21:11:24.040Z,31.60
2022-10-09T21:15:02.781Z,30.10
2022-10-09T21:17:33.042Z,29.20
2022-10-09T21:20:16.755Z,29.60
2022-10-09T21:22:58.406Z,29.60
2022-10-09T21:25:29.124Z,28.60
2022-10-09T21:28:24.189Z,27.60
2022-10-09T21:30:52.802Z,25.10
2022-10-09T21:33:47.355Z,24.60
2022-10-09T21:37:19.762Z,25.60
2022-10-09T21:40:03.036Z,23.90
2022-10-09T21:42:31.431Z,25.00
2022-10-09T21:45:09.117Z,23.60
2022-10-09T21:47:37.470Z,22.60
2022-10-09T21:50:45.998Z,23.00
2022-10-09T21:53:33.193Z,22.20
2022-10-09T21:56:26.406Z,22.20
2022-10-09T21:59:18.257Z,20.80
2022-10-09T22:01:46.914Z,20.90
2022-10-09T22:04:39.116Z,21.20
2022-10-09T22:07:10.656Z,20.90
2022-10-09T22:09:41.970Z,21.80
2022-10-09T22:12:15.904Z,19.70
2022-10-09T22:15:23.910Z,19.90
2022-10-09T22:17:52.731Z,18.50
2022-10-09T22:20:30.853Z,17.50
2022-10-09T22:23:13.461Z,18.60
2022-10-09T22:25:59.114Z,19.00
2022-10-09T22:28:27.646Z,17.90
2022-10-09T22:31:06.614Z,16.30
2022-10-09T22:33:49.805Z,17.30
2022-10-09T22:36:21.593Z,16.60
2022-10-09T22:38:56.824Z,17.10
2022-10-09T22:41:27.755Z,17.50
2022-10-09T22:44:00.436Z,16.00
2022-10-09T22:46:36.505Z,16.20
2022-10-09T22:49:32.478Z,14.50
2022-10-09T22:52:09.720Z,17.20
2022-10-09T22:55:14.371Z,15.90
2022-10-09T22:57:42.456Z,16.60
2022-10-09T23:00:23.294Z,15.70
2022-10-09T23:03:01.475Z,16.20
2022-10-09T23:05:29.434Z,15.80
2022-10-09T23:07:58.677Z,13.80
2022-10-09T23:10:30.991Z,16.50
2022-10-09T23:13:03.872Z,15.60
2022-10-09T23:15:36.071Z,15.10
2022-10-09T23:18:07.660Z,13.90
2022-10-09T23:20:55.871Z,15.90
2022-10-09T23:23:24.303Z,15.50
2022-10-09T23:26:11.047Z,17.50
2022-10-09T23:28:51.772Z,15.70
2022-10-09T23:31:39.870Z,20.80
2022-10-09T23:34:08.000Z,22.80
2022-10-09T23:36:50.766Z,23.10
2022-10-09T23:39:22.544Z,23.80
2022-10-09T23:41:52.429Z,23.40
2022-10-09T23:44:22.305Z,21.80
2022-10-09T23:47:00.879Z,22.20
2022-10-09T23:49:29.133Z,21.00
2022-10-09T23:51:58.865Z,18.70
2022-10-09T23:54:27.607Z,16.20
2022-10-09T23:56:56.648Z,19.50
2022-10-09T23:59:31.150Z,17.40
